Station Historical Data
Daily Summary for March 30, 2012 Units:  Both    English   Metric
« Previous Day
Next Day »
Daily Weekly Monthly Yearly Custom
  High: Low: Average:
Temperature: 68.8 °F /  20.4 °C 61.2 °F /  16.2 °C 63.9 °F /  17.7 °C
Dew Point: 64.7 °F /  18.2 °C 58.6 °F /  14.8 °C 61 °F /  16.1 °C
Humidity: 94% 82% 90%
Wind Speed: 13.0mph /  20.9km/h - 1.8mph /  2.9km/h
Wind Gust: 13.0mph /  20.9km/h - -
Wind- - South
Pressure: 29.92 in /  1013.1 hPa 29.77 in /  1008 hPa -
Precipitation: 0.30 in /  7.62 mm    
Historical Graphs
 
 
Tabular Data for March 30, 2012
Time Temperature Dew Point Pressure Wind Wind Speed Wind Gust Humidity Rainfall Rate (Hourly) Conditions
00:00 64.8 °F /  18.2 °C 59.5 °F /  15.3 °C 29.90in /  1012.4hPa SSE 1.0mph /  1.6km/h 2.0mph /  3.2km/h 83% 0.00in /  0mm
00:02 64.9 °F /  18.3 °C 59.6 °F /  15.3 °C 29.90in /  1012.4hPa Calm   1.0mph /  1.6km/h 83% 0.00in /  0mm
00:07 65.1 °F /  18.4 °C 59.8 °F /  15.4 °C 29.90in /  1012.4hPa SSE 1.0mph /  1.6km/h 2.0mph /  3.2km/h 83% 0.00in /  0mm
00:12 65.2 °F /  18.4 °C 59.9 °F /  15.5 °C 29.90in /  1012.4hPa SSE 1.0mph /  1.6km/h 1.0mph /  1.6km/h 83% 0.00in /  0mm
00:17 65.2 °F /  18.4 °C 59.6 °F /  15.3 °C 29.90in /  1012.4hPa SSE 1.0mph /  1.6km/h 2.0mph /  3.2km/h 82% 0.00in /  0mm
00:22 65.1 °F /  18.4 °C 59.8 °F /  15.4 °C 29.90in /  1012.4hPa SSE 1.0mph /  1.6km/h 2.0mph /  3.2km/h 83% 0.00in /  0mm
00:27 65.2 °F /  18.4 °C 59.9 °F /  15.5 °C 29.89in /  1012.1hPa SSE 1.0mph /  1.6km/h 2.0mph /  3.2km/h 83% 0.00in /  0mm
00:32 65.1 °F /  18.4 °C 59.8 °F /  15.4 °C 29.90in /  1012.4hPa SSE 1.0mph /  1.6km/h 2.0mph /  3.2km/h 83% 0.00in /  0mm
00:37 64.8 °F /  18.2 °C 59.9 °F /  15.5 °C 29.89in /  1012.1hPa SSE 2.0mph /  3.2km/h 2.0mph /  3.2km/h 84% 0.00in /  0mm
00:42 64.7 °F /  18.2 °C 59.8 °F /  15.4 °C 29.89in /  1012.1hPa South 1.0mph /  1.6km/h 2.0mph /  3.2km/h 84% 0.00in /  0mm
00:47 64.8 °F /  18.2 °C 59.9 °F /  15.5 °C 29.89in /  1012.1hPa SSE 1.0mph /  1.6km/h 2.0mph /  3.2km/h 84% 0.00in /  0mm
00:52 64.8 °F /  18.2 °C 59.9 °F /  15.5 °C 29.89in /  1012.1hPa SSE 1.0mph /  1.6km/h 1.0mph /  1.6km/h 84% 0.00in /  0mm
00:58 64.7 °F /  18.2 °C 59.8 °F /  15.4 °C 29.89in /  1012.1hPa SSE 1.0mph /  1.6km/h 1.0mph /  1.6km/h 84% 0.00in /  0mm
01:03 64.6 °F /  18.1 °C 59.7 °F /  15.4 °C 29.89in /  1012.1hPa SE 1.0mph /  1.6km/h 1.0mph /  1.6km/h 84% 0.00in /  0mm
01:08 64.4 °F /  18 °C 59.8 °F /  15.4 °C 29.89in /  1012.1hPa SSE 1.0mph /  1.6km/h 2.0mph /  3.2km/h 85% 0.00in /  0mm
01:13 64.4 °F /  18 °C 59.8 °F /  15.4 °C 29.89in /  1012.1hPa SSE 1.0mph /  1.6km/h 2.0mph /  3.2km/h 85% 0.00in /  0mm
01:18 64.4 °F /  18 °C 59.8 °F /  15.4 °C 29.89in /  1012.1hPa SSE 1.0mph /  1.6km/h 2.0mph /  3.2km/h 85% 0.00in /  0mm
01:23 64.3 °F /  17.9 °C 59.7 °F /  15.4 °C 29.88in /  1011.7hPa SSE 3.0mph /  4.8km/h 3.0mph /  4.8km/h 85% 0.00in /  0mm
01:28 64.2 °F /  17.9 °C 59.6 °F /  15.3 °C 29.88in /  1011.7hPa SSE 2.0mph /  3.2km/h 3.0mph /  4.8km/h 85% 0.00in /  0mm
01:33 63.8 °F /  17.7 °C 59.5 °F /  15.3 °C 29.88in /  1011.7hPa SE 1.0mph /  1.6km/h 2.0mph /  3.2km/h 86% 0.00in /  0mm
01:38 63.8 °F /  17.7 °C 59.9 °F /  15.5 °C 29.88in /  1011.7hPa Calm   2.0mph /  3.2km/h 87% 0.00in /  0mm
01:43 63.9 °F /  17.7 °C 60.0 °F /  15.6 °C 29.88in /  1011.7hPa SSE 1.0mph /  1.6km/h 1.0mph /  1.6km/h 87% 0.00in /  0mm
01:48 63.9 °F /  17.7 °C 59.6 °F /  15.3 °C 29.88in /  1011.7hPa Calm   1.0mph /  1.6km/h 86% 0.00in /  0mm
01:53 63.5 °F /  17.5 °C 59.6 °F /  15.3 °C 29.87in /  1011.4hPa SSE 1.0mph /  1.6km/h 1.0mph /  1.6km/h 87% 0.00in /  0mm
01:58 63.2 °F /  17.3 °C 59.3 °F /  15.2 °C 29.87in /  1011.4hPa SE 1.0mph /  1.6km/h 1.0mph /  1.6km/h 87% 0.00in /  0mm
02:03 62.9 °F /  17.2 °C 59.3 °F /  15.2 °C 29.87in /  1011.4hPa SE 1.0mph /  1.6km/h 1.0mph /  1.6km/h 88% 0.00in /  0mm
02:08 62.8 °F /  17.1 °C 59.2 °F /  15.1 °C 29.87in /  1011.4hPa Calm   2.0mph /  3.2km/h 88% 0.00in /  0mm
02:13 62.8 °F /  17.1 °C 59.5 °F /  15.3 °C 29.87in /  1011.4hPa SSE 1.0mph /  1.6km/h 2.0mph /  3.2km/h 89% 0.00in /  0mm
02:18 62.9 °F /  17.2 °C 59.6 °F /  15.3 °C 29.87in /  1011.4hPa SSE 1.0mph /  1.6km/h 1.0mph /  1.6km/h 89% 0.00in /  0mm
02:23 62.9 °F /  17.2 °C 59.6 °F /  15.3 °C 29.87in /  1011.4hPa Calm   1.0mph /  1.6km/h 89% 0.00in /  0mm
02:28 62.8 °F /  17.1 °C 59.5 °F /  15.3 °C 29.87in /  1011.4hPa Calm   1.0mph /  1.6km/h 89% 0.00in /  0mm
02:33 62.7 °F /  17.1 °C 59.4 °F /  15.2 °C 29.87in /  1011.4hPa Calm   1.0mph /  1.6km/h 89% 0.00in /  0mm
02:38 62.6 °F /  17 °C 59.3 °F /  15.2 °C 29.87in /  1011.4hPa Calm     89% 0.00in /  0mm
02:43 62.5 °F /  16.9 °C 59.2 °F /  15.1 °C 29.87in /  1011.4hPa Calm     89% 0.00in /  0mm
02:48 62.3 °F /  16.8 °C 59.3 °F /  15.2 °C 29.87in /  1011.4hPa Calm     90% 0.00in /  0mm
02:53 62.3 °F /  16.8 °C 59.3 °F /  15.2 °C 29.87in /  1011.4hPa Calm     90% 0.00in /  0mm
02:58 62.3 °F /  16.8 °C 59.3 °F /  15.2 °C 29.87in /  1011.4hPa SSE 1.0mph /  1.6km/h 1.0mph /  1.6km/h 90% 0.00in /  0mm
03:04 62.2 °F /  16.8 °C 59.2 °F /  15.1 °C 29.87in /  1011.4hPa SE 2.0mph /  3.2km/h 3.0mph /  4.8km/h 90% 0.00in /  0mm
03:09 62.1 °F /  16.7 °C 59.1 °F /  15.1 °C 29.87in /  1011.4hPa SSE 2.0mph /  3.2km/h 2.0mph /  3.2km/h 90% 0.00in /  0mm
03:14 62.0 °F /  16.7 °C 59.0 °F /  15 °C 29.87in /  1011.4hPa SE 2.0mph /  3.2km/h 2.0mph /  3.2km/h 90% 0.00in /  0mm
03:19 62.0 °F /  16.7 °C 59.0 °F /  15 °C 29.87in /  1011.4hPa SE 1.0mph /  1.6km/h 2.0mph /  3.2km/h 90% 0.00in /  0mm
03:24 61.9 °F /  16.6 °C 59.2 °F /  15.1 °C 29.87in /  1011.4hPa SE 2.0mph /  3.2km/h 2.0mph /  3.2km/h 91% 0.00in /  0mm
03:29 61.9 °F /  16.6 °C 59.2 °F /  15.1 °C 29.87in /  1011.4hPa SSE 1.0mph /  1.6km/h 2.0mph /  3.2km/h 91% 0.00in /  0mm
03:34 61.9 °F /  16.6 °C 59.2 °F /  15.1 °C 29.86in /  1011.1hPa SSE 1.0mph /  1.6km/h 2.0mph /  3.2km/h 91% 0.00in /  0mm
03:39 61.8 °F /  16.6 °C 59.2 °F /  15.1 °C 29.86in /  1011.1hPa SSE 1.0mph /  1.6km/h 1.0mph /  1.6km/h 91% 0.00in /  0mm
03:44 61.7 °F /  16.5 °C 59.0 °F /  15 °C 29.86in /  1011.1hPa SSE 1.0mph /  1.6km/h 1.0mph /  1.6km/h 91% 0.00in /  0mm
03:49 61.5 °F /  16.4 °C 58.8 °F /  14.9 °C 29.86in /  1011.1hPa SSE 2.0mph /  3.2km/h 2.0mph /  3.2km/h 91% 0.00in /  0mm
03:54 61.3 °F /  16.3 °C 58.7 °F /  14.8 °C 29.86in /  1011.1hPa SE 2.0mph /  3.2km/h 2.0mph /  3.2km/h 91% 0.00in /  0mm
03:59 61.2 °F /  16.2 °C 58.6 °F /  14.8 °C 29.86in /  1011.1hPa SSE 1.0mph /  1.6km/h 3.0mph /  4.8km/h 91% 0.00in /  0mm
04:04 61.2 °F /  16.2 °C 58.9 °F /  14.9 °C 29.86in /  1011.1hPa SE 2.0mph /  3.2km/h 3.0mph /  4.8km/h 92% 0.00in /  0mm
04:09 61.4 °F /  16.3 °C 59.1 °F /  15.1 °C 29.86in /  1011.1hPa SSE 2.0mph /  3.2km/h 2.0mph /  3.2km/h 92% 0.00in /  0mm
04:14 61.6 °F /  16.4 °C 59.3 °F /  15.2 °C 29.86in /  1011.1hPa Calm   1.0mph /  1.6km/h 92% 0.00in /  0mm
04:19 61.7 °F /  16.5 °C 59.4 °F /  15.2 °C 29.86in /  1011.1hPa SSE 1.0mph /  1.6km/h 1.0mph /  1.6km/h 92% 0.00in /  0mm
04:24 61.8 °F /  16.6 °C 59.2 °F /  15.1 °C 29.86in /  1011.1hPa Calm     91% 0.00in /  0mm
04:29 61.9 °F /  16.6 °C 59.2 °F /  15.1 °C 29.86in /  1011.1hPa Calm     91% 0.00in /  0mm
04:34 62.0 °F /  16.7 °C 59.3 °F /  15.2 °C 29.86in /  1011.1hPa Calm     91% 0.00in /  0mm
04:40 62.1 °F /  16.7 °C 59.5 °F /  15.3 °C 29.86in /  1011.1hPa ESE 1.0mph /  1.6km/h 1.0mph /  1.6km/h 91% 0.00in /  0mm
04:45 62.2 °F /  16.8 °C 59.2 °F /  15.1 °C 29.86in /  1011.1hPa SE 1.0mph /  1.6km/h 2.0mph /  3.2km/h 90% 0.00in /  0mm
04:50 62.1 °F /  16.7 °C 59.1 °F /  15.1 °C 29.86in /  1011.1hPa Calm     90% 0.00in /  0mm
04:55 62.0 °F /  16.7 °C 59.3 °F /  15.2 °C 29.87in /  1011.4hPa Calm     91% 0.00in /  0mm
05:00 61.8 °F /  16.6 °C 59.2 °F /  15.1 °C 29.87in /  1011.4hPa Calm     91% 0.00in /  0mm
05:05 61.6 °F /  16.4 °C 59.0 °F /  15 °C 29.87in /  1011.4hPa Calm     91% 0.00in /  0mm
05:10 61.8 °F /  16.6 °C 59.5 °F /  15.3 °C 29.87in /  1011.4hPa Calm     92% 0.00in /  0mm
05:15 62.1 °F /  16.7 °C 59.5 °F /  15.3 °C 29.87in /  1011.4hPa Calm     91% 0.00in /  0mm
05:20 62.3 °F /  16.8 °C 59.6 °F /  15.3 °C 29.87in /  1011.4hPa Calm     91% 0.00in /  0mm
05:25 62.3 °F /  16.8 °C 59.6 °F /  15.3 °C 29.87in /  1011.4hPa Calm     91% 0.00in /  0mm
05:30 62.4 °F /  16.9 °C 59.7 °F /  15.4 °C 29.87in /  1011.4hPa SE 1.0mph /  1.6km/h 1.0mph /  1.6km/h 91% 0.00in /  0mm
05:35 62.5 °F /  16.9 °C 59.8 °F /  15.4 °C 29.87in /  1011.4hPa Calm   1.0mph /  1.6km/h 91% 0.00in /  0mm
05:40 62.4 °F /  16.9 °C 59.7 °F /  15.4 °C 29.87in /  1011.4hPa SSE 1.0mph /  1.6km/h 1.0mph /  1.6km/h 91% 0.00in /  0mm
05:45 62.3 °F /  16.8 °C 59.6 °F /  15.3 °C 29.87in /  1011.4hPa SSE 2.0mph /  3.2km/h 2.0mph /  3.2km/h 91% 0.00in /  0mm
05:46 62.3 °F /  16.8 °C 59.6 °F /  15.3 °C 29.87in /  1011.4hPa SSE 2.0mph /  3.2km/h 2.0mph /  3.2km/h 91% 0.00in /  0mm
05:51 62.4 °F /  16.9 °C 59.7 °F /  15.4 °C 29.87in /  1011.4hPa SSE 2.0mph /  3.2km/h 3.0mph /  4.8km/h 91% 0.00in /  0mm
05:56 62.5 °F /  16.9 °C 59.5 °F /  15.3 °C 29.87in /  1011.4hPa SE 3.0mph /  4.8km/h 3.0mph /  4.8km/h 90% 0.00in /  0mm
06:01 62.5 °F /  16.9 °C 59.5 °F /  15.3 °C 29.87in /  1011.4hPa SSE 2.0mph /  3.2km/h 3.0mph /  4.8km/h 90% 0.00in /  0mm
06:06 62.4 °F /  16.9 °C 59.4 °F /  15.2 °C 29.87in /  1011.4hPa Calm   2.0mph /  3.2km/h 90% 0.00in /  0mm
06:11 62.2 °F /  16.8 °C 59.2 °F /  15.1 °C 29.87in /  1011.4hPa Calm     90% 0.00in /  0mm
06:16 62.1 °F /  16.7 °C 59.5 °F /  15.3 °C 29.87in /  1011.4hPa Calm     91% 0.00in /  0mm
06:21 61.9 °F /  16.6 °C 59.2 °F /  15.1 °C 29.87in /  1011.4hPa South 1.0mph /  1.6km/h 2.0mph /  3.2km/h 91% 0.00in /  0mm
06:26 61.8 °F /  16.6 °C 59.2 °F /  15.1 °C 29.87in /  1011.4hPa SSE 1.0mph /  1.6km/h 2.0mph /  3.2km/h 91% 0.00in /  0mm
06:31 61.7 °F /  16.5 °C 59.0 °F /  15 °C 29.87in /  1011.4hPa SE 1.0mph /  1.6km/h 1.0mph /  1.6km/h 91% 0.00in /  0mm
06:36 61.6 °F /  16.4 °C 59.0 °F /  15 °C 29.87in /  1011.4hPa Calm   1.0mph /  1.6km/h 91% 0.00in /  0mm
06:41 61.6 °F /  16.4 °C 59.3 °F /  15.2 °C 29.88in /  1011.7hPa Calm   1.0mph /  1.6km/h 92% 0.00in /  0mm
06:46 61.7 °F /  16.5 °C 59.4 °F /  15.2 °C 29.88in /  1011.7hPa SE 1.0mph /  1.6km/h 1.0mph /  1.6km/h 92% 0.00in /  0mm
06:51 61.7 °F /  16.5 °C 59.4 °F /  15.2 °C 29.88in /  1011.7hPa SE 2.0mph /  3.2km/h 2.0mph /  3.2km/h 92% 0.00in /  0mm
06:57 61.8 °F /  16.6 °C 59.5 °F /  15.3 °C 29.88in /  1011.7hPa ESE 1.0mph /  1.6km/h 2.0mph /  3.2km/h 92% 0.00in /  0mm
07:02 61.8 °F /  16.6 °C 59.2 °F /  15.1 °C 29.88in /  1011.7hPa Calm   1.0mph /  1.6km/h 91% 0.00in /  0mm
07:07 61.7 °F /  16.5 °C 59.0 °F /  15 °C 29.88in /  1011.7hPa Calm     91% 0.00in /  0mm
07:12 61.6 °F /  16.4 °C 59.0 °F /  15 °C 29.89in /  1012.1hPa SSE 1.0mph /  1.6km/h 1.0mph /  1.6km/h 91% 0.00in /  0mm
07:17 61.7 °F /  16.5 °C 59.4 °F /  15.2 °C 29.89in /  1012.1hPa South 1.0mph /  1.6km/h 1.0mph /  1.6km/h 92% 0.00in /  0mm
07:22 61.6 °F /  16.4 °C 59.3 °F /  15.2 °C 29.89in /  1012.1hPa Calm     92% 0.00in /  0mm
07:27 61.6 °F /  16.4 °C 59.3 °F /  15.2 °C 29.89in /  1012.1hPa Calm   1.0mph /  1.6km/h 92% 0.00in /  0mm
07:32 61.5 °F /  16.4 °C 59.2 °F /  15.1 °C 29.89in /  1012.1hPa South 1.0mph /  1.6km/h 1.0mph /  1.6km/h 92% 0.00in /  0mm
07:37 61.5 °F /  16.4 °C 59.2 °F /  15.1 °C 29.89in /  1012.1hPa Calm   1.0mph /  1.6km/h 92% 0.00in /  0mm
07:43 61.4 °F /  16.3 °C 59.1 °F /  15.1 °C 29.89in /  1012.1hPa Calm     92% 0.00in /  0mm
07:48 61.4 °F /  16.3 °C 59.1 °F /  15.1 °C 29.89in /  1012.1hPa Calm     92% 0.00in /  0mm
07:53 61.5 °F /  16.4 °C 59.2 °F /  15.1 °C 29.89in /  1012.1hPa SE 1.0mph /  1.6km/h 1.0mph /  1.6km/h 92% 0.00in /  0mm
07:58 61.6 °F /  16.4 °C 59.3 °F /  15.2 °C 29.89in /  1012.1hPa Calm     92% 0.00in /  0mm
08:03 61.7 °F /  16.5 °C 59.4 °F /  15.2 °C 29.89in /  1012.1hPa Calm     92% 0.00in /  0mm
08:08 61.8 °F /  16.6 °C 59.5 °F /  15.3 °C 29.89in /  1012.1hPa Calm     92% 0.00in /  0mm
08:13 61.9 °F /  16.6 °C 59.5 °F /  15.3 °C 29.89in /  1012.1hPa Calm     92% 0.00in /  0mm
08:18 61.9 °F /  16.6 °C 59.5 °F /  15.3 °C 29.89in /  1012.1hPa Calm     92% 0.00in /  0mm
08:23 62.0 °F /  16.7 °C 59.7 °F /  15.4 °C 29.89in /  1012.1hPa Calm     92% 0.00in /  0mm
08:28 62.0 °F /  16.7 °C 59.7 °F /  15.4 °C 29.90in /  1012.4hPa Calm     92% 0.00in /  0mm
08:33 62.1 °F /  16.7 °C 59.8 °F /  15.4 °C 29.90in /  1012.4hPa Calm     92% 0.00in /  0mm
08:38 62.3 °F /  16.8 °C 60.0 °F /  15.6 °C 29.90in /  1012.4hPa Calm     92% 0.00in /  0mm
08:43 62.4 °F /  16.9 °C 60.0 °F /  15.6 °C 29.90in /  1012.4hPa Calm     92% 0.00in /  0mm
08:48 62.5 °F /  16.9 °C 60.2 °F /  15.7 °C 29.91in /  1012.8hPa Calm   1.0mph /  1.6km/h 92% 0.00in /  0mm
08:53 62.8 °F /  17.1 °C 60.5 °F /  15.8 °C 29.91in /  1012.8hPa SSE 3.0mph /  4.8km/h 3.0mph /  4.8km/h 92% 0.00in /  0mm
08:58 63.0 °F /  17.2 °C 60.3 °F /  15.7 °C 29.91in /  1012.8hPa SSW 3.0mph /  4.8km/h 5.0mph /  8km/h 91% 0.00in /  0mm
09:03 63.3 °F /  17.4 °C 60.6 °F /  15.9 °C 29.91in /  1012.8hPa South 4.0mph /  6.4km/h 5.0mph /  8km/h 91% 0.00in /  0mm
09:08 63.4 °F /  17.4 °C 60.7 °F /  15.9 °C 29.91in /  1012.8hPa South 4.0mph /  6.4km/h 5.0mph /  8km/h 91% 0.00in /  0mm
09:13 63.6 °F /  17.6 °C 60.6 °F /  15.9 °C 29.91in /  1012.8hPa South 3.0mph /  4.8km/h 4.0mph /  6.4km/h 90% 0.00in /  0mm
09:18 63.8 °F /  17.7 °C 60.8 °F /  16 °C 29.91in /  1012.8hPa South 2.0mph /  3.2km/h 4.0mph /  6.4km/h 90% 0.00in /  0mm
09:23 63.9 °F /  17.7 °C 60.9 °F /  16.1 °C 29.90in /  1012.4hPa SSW 2.0mph /  3.2km/h 3.0mph /  4.8km/h 90% 0.00in /  0mm
09:28 64.1 °F /  17.8 °C 61.1 °F /  16.2 °C 29.90in /  1012.4hPa South 3.0mph /  4.8km/h 4.0mph /  6.4km/h 90% 0.00in /  0mm
09:33 64.3 °F /  17.9 °C 61.3 °F /  16.3 °C 29.90in /  1012.4hPa SSW 2.0mph /  3.2km/h 3.0mph /  4.8km/h 90% 0.00in /  0mm
09:38 64.6 °F /  18.1 °C 61.6 °F /  16.4 °C 29.90in /  1012.4hPa SW 4.0mph /  6.4km/h 5.0mph /  8km/h 90% 0.00in /  0mm
09:44 64.8 °F /  18.2 °C 61.8 °F /  16.6 °C 29.91in /  1012.8hPa SSW 2.0mph /  3.2km/h 3.0mph /  4.8km/h 90% 0.00in /  0mm
09:49 65.2 °F /  18.4 °C 62.2 °F /  16.8 °C 29.91in /  1012.8hPa SW 4.0mph /  6.4km/h 4.0mph /  6.4km/h 90% 0.00in /  0mm
09:54 65.6 °F /  18.7 °C 62.6 °F /  17 °C 29.91in /  1012.8hPa SW 2.0mph /  3.2km/h 6.0mph /  9.7km/h 90% 0.00in /  0mm
09:59 65.7 °F /  18.7 °C 62.0 °F /  16.7 °C 29.91in /  1012.8hPa SSW 3.0mph /  4.8km/h 7.0mph /  11.3km/h 88% 0.00in /  0mm
10:04 65.6 °F /  18.7 °C 62.0 °F /  16.7 °C 29.91in /  1012.8hPa SW 2.0mph /  3.2km/h 6.0mph /  9.7km/h 88% 0.00in /  0mm
10:09 65.8 °F /  18.8 °C 62.2 °F /  16.8 °C 29.91in /  1012.8hPa SSW 2.0mph /  3.2km/h 5.0mph /  8km/h 88% 0.00in /  0mm
10:14 65.8 °F /  18.8 °C 62.2 °F /  16.8 °C 29.91in /  1012.8hPa WNW 2.0mph /  3.2km/h 4.0mph /  6.4km/h 88% 0.00in /  0mm
10:19 65.8 °F /  18.8 °C 62.2 °F /  16.8 °C 29.90in /  1012.4hPa West 2.0mph /  3.2km/h 4.0mph /  6.4km/h 88% 0.00in /  0mm
10:24 65.9 °F /  18.8 °C 62.2 °F /  16.8 °C 29.90in /  1012.4hPa SW 2.0mph /  3.2km/h 5.0mph /  8km/h 88% 0.00in /  0mm
10:29 66.0 °F /  18.9 °C 62.3 °F /  16.8 °C 29.91in /  1012.8hPa WSW 2.0mph /  3.2km/h 3.0mph /  4.8km/h 88% 0.00in /  0mm
10:34 66.0 °F /  18.9 °C 62.3 °F /  16.8 °C 29.91in /  1012.8hPa West 3.0mph /  4.8km/h 5.0mph /  8km/h 88% 0.00in /  0mm
10:39 66.2 °F /  19 °C 62.2 °F /  16.8 °C 29.91in /  1012.8hPa WSW 3.0mph /  4.8km/h 5.0mph /  8km/h 87% 0.00in /  0mm
10:44 66.2 °F /  19 °C 62.5 °F /  16.9 °C 29.91in /  1012.8hPa SW 3.0mph /  4.8km/h 4.0mph /  6.4km/h 88% 0.00in /  0mm
10:49 66.1 °F /  18.9 °C 62.5 °F /  16.9 °C 29.90in /  1012.4hPa WSW 3.0mph /  4.8km/h 3.0mph /  4.8km/h 88% 0.00in /  0mm
10:50 66.0 °F /  18.9 °C 62.3 °F /  16.8 °C 29.90in /  1012.4hPa West 2.0mph /  3.2km/h 3.0mph /  4.8km/h 88% 0.00in /  0mm
10:55 65.9 °F /  18.8 °C 61.9 °F /  16.6 °C 29.90in /  1012.4hPa WSW 2.0mph /  3.2km/h 4.0mph /  6.4km/h 87% 0.00in /  0mm
11:00 66.1 °F /  18.9 °C 62.1 °F /  16.7 °C 29.91in /  1012.8hPa WSW 4.0mph /  6.4km/h 6.0mph /  9.7km/h 87% 0.00in /  0mm
11:05 66.0 °F /  18.9 °C 62.0 °F /  16.7 °C 29.90in /  1012.4hPa WSW 3.0mph /  4.8km/h 5.0mph /  8km/h 87% 0.00in /  0mm
11:11 66.0 °F /  18.9 °C 62.3 °F /  16.8 °C 29.90in /  1012.4hPa WSW 5.0mph /  8km/h 5.0mph /  8km/h 88% 0.00in /  0mm
11:16 65.7 °F /  18.7 °C 61.7 °F /  16.5 °C 29.90in /  1012.4hPa SW 2.0mph /  3.2km/h 6.0mph /  9.7km/h 87% 0.00in /  0mm
11:21 65.6 °F /  18.7 °C 61.6 °F /  16.4 °C 29.90in /  1012.4hPa WSW 4.0mph /  6.4km/h 5.0mph /  8km/h 87% 0.00in /  0mm
11:25 65.5 °F /  18.6 °C 61.5 °F /  16.4 °C 29.91in /  1012.8hPa West 3.0mph /  4.8km/h 5.0mph /  8km/h 87% 0.00in /  0mm
11:31 65.2 °F /  18.4 °C 61.6 °F /  16.4 °C 29.91in /  1012.8hPa WSW 3.0mph /  4.8km/h 4.0mph /  6.4km/h 88% 0.00in /  0mm
11:36 65.0 °F /  18.3 °C 61.7 °F /  16.5 °C 29.91in /  1012.8hPa WSW 4.0mph /  6.4km/h 6.0mph /  9.7km/h 89% 0.00in /  0mm
11:41 64.7 °F /  18.2 °C 61.4 °F /  16.3 °C 29.91in /  1012.8hPa West 3.0mph /  4.8km/h 4.0mph /  6.4km/h 89% 0.00in /  0mm
11:46 64.6 °F /  18.1 °C 61.6 °F /  16.4 °C 29.91in /  1012.8hPa West 2.0mph /  3.2km/h 3.0mph /  4.8km/h 90% 0.00in /  0mm
11:51 64.4 °F /  18 °C 61.4 °F /  16.3 °C 29.91in /  1012.8hPa West 2.0mph /  3.2km/h 3.0mph /  4.8km/h 90% 0.00in /  0mm
11:56 64.3 °F /  17.9 °C 61.3 °F /  16.3 °C 29.91in /  1012.8hPa SW 2.0mph /  3.2km/h 4.0mph /  6.4km/h 90% 0.00in /  0mm
12:01 64.1 °F /  17.8 °C 61.1 °F /  16.2 °C 29.92in /  1013.1hPa WSW 3.0mph /  4.8km/h 4.0mph /  6.4km/h 90% 0.00in /  0mm
12:06 64.0 °F /  17.8 °C 61.0 °F /  16.1 °C 29.92in /  1013.1hPa WSW 3.0mph /  4.8km/h 6.0mph /  9.7km/h 90% 0.00in /  0mm
12:11 63.8 °F /  17.7 °C 61.1 °F /  16.2 °C 29.92in /  1013.1hPa WSW 3.0mph /  4.8km/h 4.0mph /  6.4km/h 91% 0.00in /  0mm
12:16 63.6 °F /  17.6 °C 60.9 °F /  16.1 °C 29.92in /  1013.1hPa SW 3.0mph /  4.8km/h 7.0mph /  11.3km/h 91% 0.00in /  0mm
12:22 63.4 °F /  17.4 °C 60.7 °F /  15.9 °C 29.92in /  1013.1hPa WSW 3.0mph /  4.8km/h 6.0mph /  9.7km/h 91% 0.00in /  0mm
12:27 63.3 °F /  17.4 °C 60.9 °F /  16.1 °C 29.92in /  1013.1hPa Calm   2.0mph /  3.2km/h 92% 0.16in /  4.06mm
12:32 63.0 °F /  17.2 °C 60.3 °F /  15.7 °C 29.92in /  1013.1hPa West 1.0mph /  1.6km/h 2.0mph /  3.2km/h 91% 0.08in /  2.03mm
12:37 62.8 °F /  17.1 °C 60.1 °F /  15.6 °C 29.91in /  1012.8hPa West 1.0mph /  1.6km/h 1.0mph /  1.6km/h 91% 0.08in /  2.03mm
12:42 62.6 °F /  17 °C 60.2 °F /  15.7 °C 29.91in /  1012.8hPa NW 1.0mph /  1.6km/h 2.0mph /  3.2km/h 92% 0.15in /  3.81mm
12:43 62.6 °F /  17 °C 60.2 °F /  15.7 °C 29.91in /  1012.8hPa NW 1.0mph /  1.6km/h 2.0mph /  3.2km/h 92% 0.15in /  3.81mm
12:48 62.4 °F /  16.9 °C 60.0 °F /  15.6 °C 29.91in /  1012.8hPa NW 1.0mph /  1.6km/h 3.0mph /  4.8km/h 92% 0.16in /  4.06mm
12:53 62.3 °F /  16.8 °C 60.2 °F /  15.7 °C 29.91in /  1012.8hPa Calm   1.0mph /  1.6km/h 93% 0.15in /  3.81mm
12:58 62.2 °F /  16.8 °C 60.2 °F /  15.7 °C 29.91in /  1012.8hPa Calm   2.0mph /  3.2km/h 93% 0.18in /  4.57mm
13:03 62.2 °F /  16.8 °C 60.2 °F /  15.7 °C 29.91in /  1012.8hPa West 1.0mph /  1.6km/h 1.0mph /  1.6km/h 93% 0.15in /  3.81mm
13:08 62.1 °F /  16.7 °C 60.1 °F /  15.6 °C 29.91in /  1012.8hPa Calm   2.0mph /  3.2km/h 93% 0.12in /  3.05mm
13:13 62.0 °F /  16.7 °C 60.3 °F /  15.7 °C 29.91in /  1012.8hPa West 1.0mph /  1.6km/h 3.0mph /  4.8km/h 94% 0.16in /  4.06mm
13:18 62.0 °F /  16.7 °C 60.3 °F /  15.7 °C 29.91in /  1012.8hPa Calm   2.0mph /  3.2km/h 94% 0.31in /  7.87mm
13:23 62.0 °F /  16.7 °C 60.3 °F /  15.7 °C 29.91in /  1012.8hPa West 1.0mph /  1.6km/h 1.0mph /  1.6km/h 94% 0.29in /  7.37mm
13:28 61.9 °F /  16.6 °C 60.2 °F /  15.7 °C 29.91in /  1012.8hPa WNW 2.0mph /  3.2km/h 3.0mph /  4.8km/h 94% 0.30in /  7.62mm
13:33 61.9 °F /  16.6 °C 60.2 °F /  15.7 °C 29.90in /  1012.4hPa Calm   1.0mph /  1.6km/h 94% 0.21in /  5.33mm
13:38 62.0 °F /  16.7 °C 60.3 °F /  15.7 °C 29.90in /  1012.4hPa Calm   1.0mph /  1.6km/h 94% 0.14in /  3.56mm
13:43 61.9 °F /  16.6 °C 60.2 °F /  15.7 °C 29.90in /  1012.4hPa West 2.0mph /  3.2km/h 3.0mph /  4.8km/h 94% 0.09in /  2.29mm
13:49 61.8 °F /  16.6 °C 60.1 °F /  15.6 °C 29.90in /  1012.4hPa Calm   1.0mph /  1.6km/h 94% 0.09in /  2.29mm
13:54 61.9 °F /  16.6 °C 60.2 °F /  15.7 °C 29.89in /  1012.1hPa WNW 1.0mph /  1.6km/h 3.0mph /  4.8km/h 94% 0.06in /  1.52mm
13:59 61.9 °F /  16.6 °C 60.2 °F /  15.7 °C 29.89in /  1012.1hPa Calm   1.0mph /  1.6km/h 94% 0.09in /  2.29mm
14:04 62.0 °F /  16.7 °C 60.3 °F /  15.7 °C 29.89in /  1012.1hPa Calm   2.0mph /  3.2km/h 94% 0.09in /  2.29mm
14:09 62.0 °F /  16.7 °C 60.3 °F /  15.7 °C 29.88in /  1011.7hPa Calm   1.0mph /  1.6km/h 94% 0.08in /  2.03mm
14:14 62.2 °F /  16.8 °C 60.5 °F /  15.8 °C 29.88in /  1011.7hPa Calm   1.0mph /  1.6km/h 94% 0.07in /  1.78mm
14:19 62.2 °F /  16.8 °C 60.5 °F /  15.8 °C 29.87in /  1011.4hPa ESE 1.0mph /  1.6km/h 2.0mph /  3.2km/h 94% 0.05in /  1.27mm
14:24 62.2 °F /  16.8 °C 60.5 °F /  15.8 °C 29.87in /  1011.4hPa East 2.0mph /  3.2km/h 3.0mph /  4.8km/h 94% 0.05in /  1.27mm
14:29 62.5 °F /  16.9 °C 60.8 °F /  16 °C 29.87in /  1011.4hPa East 2.0mph /  3.2km/h 4.0mph /  6.4km/h 94% 0.05in /  1.27mm
14:34 62.6 °F /  17 °C 60.8 °F /  16 °C 29.86in /  1011.1hPa SE 4.0mph /  6.4km/h 4.0mph /  6.4km/h 94% 0.05in /  1.27mm
14:39 62.7 °F /  17.1 °C 61.0 °F /  16.1 °C 29.86in /  1011.1hPa SE 3.0mph /  4.8km/h 6.0mph /  9.7km/h 94% 0.05in /  1.27mm
14:44 62.8 °F /  17.1 °C 61.0 °F /  16.1 °C 29.86in /  1011.1hPa ESE 4.0mph /  6.4km/h 5.0mph /  8km/h 94% 0.04in /  1.02mm
14:49 63.0 °F /  17.2 °C 61.2 °F /  16.2 °C 29.85in /  1010.7hPa ESE 5.0mph /  8km/h 7.0mph /  11.3km/h 94% 0.00in /  0mm
14:54 62.9 °F /  17.2 °C 60.8 °F /  16 °C 29.85in /  1010.7hPa ESE 7.0mph /  11.3km/h 7.0mph /  11.3km/h 93% 0.00in /  0mm
14:59 63.0 °F /  17.2 °C 61.0 °F /  16.1 °C 29.85in /  1010.7hPa East 5.0mph /  8km/h 6.0mph /  9.7km/h 93% 0.00in /  0mm
15:05 63.3 °F /  17.4 °C 61.5 °F /  16.4 °C 29.84in /  1010.4hPa ESE 5.0mph /  8km/h 7.0mph /  11.3km/h 94% 0.00in /  0mm
15:10 63.6 °F /  17.6 °C 61.8 °F /  16.6 °C 29.84in /  1010.4hPa ESE 4.0mph /  6.4km/h 7.0mph /  11.3km/h 94% 0.00in /  0mm
15:15 63.9 °F /  17.7 °C 61.8 °F /  16.6 °C 29.84in /  1010.4hPa East 6.0mph /  9.7km/h 8.0mph /  12.9km/h 93% 0.00in /  0mm
15:20 64.0 °F /  17.8 °C 61.9 °F /  16.6 °C 29.84in /  1010.4hPa ESE 6.0mph /  9.7km/h 8.0mph /  12.9km/h 93% 0.00in /  0mm
15:25 64.2 °F /  17.9 °C 62.1 °F /  16.7 °C 29.84in /  1010.4hPa SE 5.0mph /  8km/h 7.0mph /  11.3km/h 93% 0.00in /  0mm
15:30 64.4 °F /  18 °C 62.3 °F /  16.8 °C 29.83in /  1010hPa SE 4.0mph /  6.4km/h 8.0mph /  12.9km/h 93% 0.00in /  0mm
15:35 65.0 °F /  18.3 °C 62.9 °F /  17.2 °C 29.83in /  1010hPa ESE 7.0mph /  11.3km/h 8.0mph /  12.9km/h 93% 0.00in /  0mm
15:40 65.1 °F /  18.4 °C 62.7 °F /  17.1 °C 29.83in /  1010hPa ESE 5.0mph /  8km/h 10.0mph /  16.1km/h 92% 0.00in /  0mm
15:45 65.6 °F /  18.7 °C 63.2 °F /  17.3 °C 29.82in /  1009.7hPa ESE 7.0mph /  11.3km/h 10.0mph /  16.1km/h 92% 0.00in /  0mm
15:50 65.9 °F /  18.8 °C 63.2 °F /  17.3 °C 29.82in /  1009.7hPa ESE 13.0mph /  20.9km/h 13.0mph /  20.9km/h 91% 0.00in /  0mm
15:55 65.9 °F /  18.8 °C 63.2 °F /  17.3 °C 29.82in /  1009.7hPa ESE 7.0mph /  11.3km/h 11.0mph /  17.7km/h 91% 0.00in /  0mm
16:00 66.0 °F /  18.9 °C 63.6 °F /  17.6 °C 29.81in /  1009.4hPa SE 4.0mph /  6.4km/h 6.0mph /  9.7km/h 92% 0.00in /  0mm
16:05 66.2 °F /  19 °C 63.5 °F /  17.5 °C 29.81in /  1009.4hPa ESE 9.0mph /  14.5km/h 9.0mph /  14.5km/h 91% 0.00in /  0mm
16:10 66.2 °F /  19 °C 63.5 °F /  17.5 °C 29.80in /  1009hPa SSE 6.0mph /  9.7km/h 8.0mph /  12.9km/h 91% 0.00in /  0mm
16:15 66.4 °F /  19.1 °C 63.7 °F /  17.6 °C 29.80in /  1009hPa SE 8.0mph /  12.9km/h 10.0mph /  16.1km/h 91% 0.00in /  0mm
16:20 66.5 °F /  19.2 °C 63.8 °F /  17.7 °C 29.80in /  1009hPa SSE 5.0mph /  8km/h 10.0mph /  16.1km/h 91% 0.00in /  0mm
16:25 66.8 °F /  19.3 °C 64.1 °F /  17.8 °C 29.80in /  1009hPa SE 7.0mph /  11.3km/h 13.0mph /  20.9km/h 91% 0.00in /  0mm
16:30 67.1 °F /  19.5 °C 64.4 °F /  18 °C 29.79in /  1008.7hPa SE 9.0mph /  14.5km/h 13.0mph /  20.9km/h 91% 0.00in /  0mm
16:35 67.2 °F /  19.6 °C 64.5 °F /  18.1 °C 29.79in /  1008.7hPa ESE 6.0mph /  9.7km/h 11.0mph /  17.7km/h 91% 0.00in /  0mm
16:36 67.2 °F /  19.6 °C 64.5 °F /  18.1 °C 29.79in /  1008.7hPa SE 7.0mph /  11.3km/h 11.0mph /  17.7km/h 91% 0.00in /  0mm
16:41 67.1 °F /  19.5 °C 64.1 °F /  17.8 °C 29.79in /  1008.7hPa SE 4.0mph /  6.4km/h 8.0mph /  12.9km/h 90% 0.00in /  0mm
16:46 67.0 °F /  19.4 °C 63.7 °F /  17.6 °C 29.80in /  1009hPa SSE 2.0mph /  3.2km/h 8.0mph /  12.9km/h 89% 0.00in /  0mm
16:51 67.2 °F /  19.6 °C 64.2 °F /  17.9 °C 29.80in /  1009hPa SSE 7.0mph /  11.3km/h 8.0mph /  12.9km/h 90% 0.00in /  0mm
16:56 67.3 °F /  19.6 °C 64.0 °F /  17.8 °C 29.80in /  1009hPa South 2.0mph /  3.2km/h 7.0mph /  11.3km/h 89% 0.00in /  0mm
17:01 67.6 °F /  19.8 °C 64.2 °F /  17.9 °C 29.80in /  1009hPa SSW 3.0mph /  4.8km/h 4.0mph /  6.4km/h 89% 0.00in /  0mm
17:06 67.6 °F /  19.8 °C 63.9 °F /  17.7 °C 29.79in /  1008.7hPa South 2.0mph /  3.2km/h 6.0mph /  9.7km/h 88% 0.00in /  0mm
17:11 67.7 °F /  19.8 °C 64.0 °F /  17.8 °C 29.79in /  1008.7hPa South 2.0mph /  3.2km/h 4.0mph /  6.4km/h 88% 0.00in /  0mm
17:16 68.4 °F /  20.2 °C 64.7 °F /  18.2 °C 29.79in /  1008.7hPa SSW 3.0mph /  4.8km/h 4.0mph /  6.4km/h 88% 0.00in /  0mm
17:21 68.4 °F /  20.2 °C 64.4 °F /  18 °C 29.78in /  1008.4hPa West 2.0mph /  3.2km/h 6.0mph /  9.7km/h 87% 0.00in /  0mm
17:26 68.3 °F /  20.2 °C 64.3 °F /  17.9 °C 29.78in /  1008.4hPa WSW 4.0mph /  6.4km/h 6.0mph /  9.7km/h 87% 0.00in /  0mm
17:31 68.3 °F /  20.2 °C 64.0 °F /  17.8 °C 29.78in /  1008.4hPa SW 3.0mph /  4.8km/h 6.0mph /  9.7km/h 86% 0.00in /  0mm
17:36 68.3 °F /  20.2 °C 64.3 °F /  17.9 °C 29.78in /  1008.4hPa Calm   5.0mph /  8km/h 87% 0.00in /  0mm
17:41 68.4 °F /  20.2 °C 64.4 °F /  18 °C 29.78in /  1008.4hPa SW 1.0mph /  1.6km/h 2.0mph /  3.2km/h 87% 0.00in /  0mm
17:46 68.4 °F /  20.2 °C 64.1 °F /  17.8 °C 29.78in /  1008.4hPa SW 2.0mph /  3.2km/h 3.0mph /  4.8km/h 86% 0.00in /  0mm
17:52 68.4 °F /  20.2 °C 63.7 °F /  17.6 °C 29.77in /  1008hPa WSW 2.0mph /  3.2km/h 4.0mph /  6.4km/h 85% 0.00in /  0mm
17:57 68.6 °F /  20.3 °C 63.6 °F /  17.6 °C 29.77in /  1008hPa SW 4.0mph /  6.4km/h 5.0mph /  8km/h 84% 0.00in /  0mm
18:02 68.5 °F /  20.3 °C 63.5 °F /  17.5 °C 29.77in /  1008hPa SSW 2.0mph /  3.2km/h 4.0mph /  6.4km/h 84% 0.00in /  0mm
18:07 68.6 °F /  20.3 °C 63.9 °F /  17.7 °C 29.77in /  1008hPa SSW 1.0mph /  1.6km/h 3.0mph /  4.8km/h 85% 0.00in /  0mm
18:12 68.8 °F /  20.4 °C 64.1 °F /  17.8 °C 29.78in /  1008.4hPa West 1.0mph /  1.6km/h 3.0mph /  4.8km/h 85% 0.00in /  0mm
18:17 68.7 °F /  20.4 °C 64.3 °F /  17.9 °C 29.78in /  1008.4hPa West 1.0mph /  1.6km/h 2.0mph /  3.2km/h 86% 0.00in /  0mm
18:22 68.5 °F /  20.3 °C 63.8 °F /  17.7 °C 29.78in /  1008.4hPa NW 1.0mph /  1.6km/h 4.0mph /  6.4km/h 85% 0.00in /  0mm
18:27 68.2 °F /  20.1 °C 63.9 °F /  17.7 °C 29.78in /  1008.4hPa NNW 1.0mph /  1.6km/h 2.0mph /  3.2km/h 86% 0.00in /  0mm
18:32 68.0 °F /  20 °C 63.7 °F /  17.6 °C 29.78in /  1008.4hPa WNW 4.0mph /  6.4km/h 5.0mph /  8km/h 86% 0.00in /  0mm
18:37 67.8 °F /  19.9 °C 63.8 °F /  17.7 °C 29.79in /  1008.7hPa NW 2.0mph /  3.2km/h 4.0mph /  6.4km/h 87% 0.00in /  0mm
18:42 67.6 °F /  19.8 °C 63.6 °F /  17.6 °C 29.79in /  1008.7hPa NW 5.0mph /  8km/h 5.0mph /  8km/h 87% 0.00in /  0mm
18:48 67.4 °F /  19.7 °C 63.4 °F /  17.4 °C 29.79in /  1008.7hPa NW 4.0mph /  6.4km/h 7.0mph /  11.3km/h 87% 0.00in /  0mm
18:53 67.2 °F /  19.6 °C 63.2 °F /  17.3 °C 29.79in /  1008.7hPa NW 3.0mph /  4.8km/h 5.0mph /  8km/h 87% 0.00in /  0mm
18:58 67.1 °F /  19.5 °C 63.1 °F /  17.3 °C 29.79in /  1008.7hPa NW 4.0mph /  6.4km/h 4.0mph /  6.4km/h 87% 0.00in /  0mm
19:03 66.9 °F /  19.4 °C 63.2 °F /  17.3 °C 29.79in /  1008.7hPa NW 2.0mph /  3.2km/h 4.0mph /  6.4km/h 88% 0.00in /  0mm
19:08 66.9 °F /  19.4 °C 63.2 °F /  17.3 °C 29.80in /  1009hPa NW 2.0mph /  3.2km/h 4.0mph /  6.4km/h 88% 0.00in /  0mm
19:13 66.9 °F /  19.4 °C 63.2 °F /  17.3 °C 29.80in /  1009hPa NW 4.0mph /  6.4km/h 4.0mph /  6.4km/h 88% 0.00in /  0mm
19:18 66.8 °F /  19.3 °C 63.1 °F /  17.3 °C 29.80in /  1009hPa NW 3.0mph /  4.8km/h 5.0mph /  8km/h 88% 0.00in /  0mm
19:23 66.7 °F /  19.3 °C 63.0 °F /  17.2 °C 29.80in /  1009hPa NW 2.0mph /  3.2km/h 3.0mph /  4.8km/h 88% 0.00in /  0mm
19:28 66.7 °F /  19.3 °C 63.0 °F /  17.2 °C 29.79in /  1008.7hPa North 1.0mph /  1.6km/h 2.0mph /  3.2km/h 88% 0.00in /  0mm
19:33 66.7 °F /  19.3 °C 63.0 °F /  17.2 °C 29.79in /  1008.7hPa Calm   1.0mph /  1.6km/h 88% 0.00in /  0mm
19:38 66.6 °F /  19.2 °C 62.9 °F /  17.2 °C 29.79in /  1008.7hPa SE 2.0mph /  3.2km/h 3.0mph /  4.8km/h 88% 0.00in /  0mm
19:43 66.6 °F /  19.2 °C 63.3 °F /  17.4 °C 29.80in /  1009hPa SE 1.0mph /  1.6km/h 2.0mph /  3.2km/h 89% 0.00in /  0mm
19:48 66.5 °F /  19.2 °C 63.2 °F /  17.3 °C 29.80in /  1009hPa SE 2.0mph /  3.2km/h 2.0mph /  3.2km/h 89% 0.00in /  0mm
19:53 66.3 °F /  19.1 °C 63.0 °F /  17.2 °C 29.80in /  1009hPa SE 4.0mph /  6.4km/h 4.0mph /  6.4km/h 89% 0.00in /  0mm
19:58 66.1 °F /  18.9 °C 63.1 °F /  17.3 °C 29.80in /  1009hPa SSE 5.0mph /  8km/h 6.0mph /  9.7km/h 90% 0.00in /  0mm
20:03 66.0 °F /  18.9 °C 63.0 °F /  17.2 °C 29.79in /  1008.7hPa ESE 3.0mph /  4.8km/h 4.0mph /  6.4km/h 90% 0.00in /  0mm
20:08 65.8 °F /  18.8 °C 62.8 °F /  17.1 °C 29.79in /  1008.7hPa SSE 2.0mph /  3.2km/h 3.0mph /  4.8km/h 90% 0.00in /  0mm
20:13 65.6 °F /  18.7 °C 62.6 °F /  17 °C 29.79in /  1008.7hPa SSE 3.0mph /  4.8km/h 3.0mph /  4.8km/h 90% 0.00in /  0mm
20:19 65.4 °F /  18.6 °C 62.4 °F /  16.9 °C 29.79in /  1008.7hPa SE 2.0mph /  3.2km/h 3.0mph /  4.8km/h 90% 0.00in /  0mm
20:24 65.2 °F /  18.4 °C 62.5 °F /  16.9 °C 29.79in /  1008.7hPa ESE 2.0mph /  3.2km/h 3.0mph /  4.8km/h 91% 0.00in /  0mm
20:29 65.0 °F /  18.3 °C 62.3 °F /  16.8 °C 29.79in /  1008.7hPa SE 1.0mph /  1.6km/h 3.0mph /  4.8km/h 91% 0.00in /  0mm
20:34 64.8 °F /  18.2 °C 62.1 °F /  16.7 °C 29.79in /  1008.7hPa ESE 2.0mph /  3.2km/h 2.0mph /  3.2km/h 91% 0.00in /  0mm
20:39 64.7 °F /  18.2 °C 62.0 °F /  16.7 °C 29.79in /  1008.7hPa SE 2.0mph /  3.2km/h 2.0mph /  3.2km/h 91% 0.00in /  0mm
20:44 64.6 °F /  18.1 °C 62.2 °F /  16.8 °C 29.79in /  1008.7hPa Calm   2.0mph /  3.2km/h 92% 0.00in /  0mm
20:49 64.3 °F /  17.9 °C 61.9 °F /  16.6 °C 29.79in /  1008.7hPa Calm     92% 0.00in /  0mm
20:54 63.7 °F /  17.6 °C 61.0 °F /  16.1 °C 29.80in /  1009hPa SE 1.0mph /  1.6km/h 1.0mph /  1.6km/h 91% 0.00in /  0mm
20:59 63.2 °F /  17.3 °C 60.8 °F /  16 °C 29.80in /  1009hPa Calm   1.0mph /  1.6km/h 92% 0.00in /  0mm
21:04 62.9 °F /  17.2 °C 60.8 °F /  16 °C 29.80in /  1009hPa Calm     93% 0.00in /  0mm
21:09 62.8 °F /  17.1 °C 60.8 °F /  16 °C 29.80in /  1009hPa Calm     93% 0.00in /  0mm
21:14 62.7 °F /  17.1 °C 61.0 °F /  16.1 °C 29.80in /  1009hPa Calm     94% 0.00in /  0mm
21:19 62.6 °F /  17 °C 60.8 °F /  16 °C 29.80in /  1009hPa Calm     94% 0.00in /  0mm
21:24 62.2 °F /  16.8 °C 60.5 °F /  15.8 °C 29.80in /  1009hPa Calm     94% 0.00in /  0mm
21:29 62.3 °F /  16.8 °C 60.6 °F /  15.9 °C 29.80in /  1009hPa Calm     94% 0.00in /  0mm
21:34 62.4 °F /  16.9 °C 60.7 °F /  15.9 °C 29.81in /  1009.4hPa SE 1.0mph /  1.6km/h 1.0mph /  1.6km/h 94% 0.00in /  0mm
21:39 62.5 °F /  16.9 °C 60.8 °F /  16 °C 29.81in /  1009.4hPa Calm     94% 0.00in /  0mm
21:44 62.6 °F /  17 °C 60.8 °F /  16 °C 29.81in /  1009.4hPa Calm     94% 0.00in /  0mm
21:49 62.5 °F /  16.9 °C 60.8 °F /  16 °C 29.81in /  1009.4hPa Calm     94% 0.00in /  0mm
21:54 62.6 °F /  17 °C 60.8 °F /  16 °C 29.82in /  1009.7hPa Calm     94% 0.00in /  0mm
21:59 62.7 °F /  17.1 °C 61.0 °F /  16.1 °C 29.82in /  1009.7hPa SE 1.0mph /  1.6km/h 1.0mph /  1.6km/h 94% 0.00in /  0mm
22:04 62.6 °F /  17 °C 60.8 °F /  16 °C 29.82in /  1009.7hPa SE 1.0mph /  1.6km/h 1.0mph /  1.6km/h 94% 0.00in /  0mm
22:09 62.5 °F /  16.9 °C 60.8 °F /  16 °C 29.82in /  1009.7hPa Calm     94% 0.00in /  0mm
22:14 62.3 °F /  16.8 °C 60.6 °F /  15.9 °C 29.82in /  1009.7hPa SE 1.0mph /  1.6km/h 1.0mph /  1.6km/h 94% 0.00in /  0mm
22:19 62.3 °F /  16.8 °C 60.6 °F /  15.9 °C 29.82in /  1009.7hPa Calm   1.0mph /  1.6km/h 94% 0.00in /  0mm
22:24 62.3 °F /  16.8 °C 60.6 °F /  15.9 °C 29.82in /  1009.7hPa SE 1.0mph /  1.6km/h 2.0mph /  3.2km/h 94% 0.00in /  0mm
22:29 62.3 °F /  16.8 °C 60.6 °F /  15.9 °C 29.83in /  1010hPa SSE 1.0mph /  1.6km/h 1.0mph /  1.6km/h 94% 0.00in /  0mm
22:35 62.4 °F /  16.9 °C 60.7 °F /  15.9 °C 29.83in /  1010hPa SSE 1.0mph /  1.6km/h 3.0mph /  4.8km/h 94% 0.00in /  0mm
22:40 62.5 °F /  16.9 °C 60.8 °F /  16 °C 29.83in /  1010hPa SSE 2.0mph /  3.2km/h 2.0mph /  3.2km/h 94% 0.00in /  0mm
22:45 62.6 °F /  17 °C 60.8 °F /  16 °C 29.83in /  1010hPa SSE 1.0mph /  1.6km/h 2.0mph /  3.2km/h 94% 0.00in /  0mm
22:50 62.7 °F /  17.1 °C 61.0 °F /  16.1 °C 29.83in /  1010hPa SE 1.0mph /  1.6km/h 2.0mph /  3.2km/h 94% 0.00in /  0mm
22:55 62.7 °F /  17.1 °C 61.0 °F /  16.1 °C 29.83in /  1010hPa SSE 1.0mph /  1.6km/h 1.0mph /  1.6km/h 94% 0.00in /  0mm
23:00 62.8 °F /  17.1 °C 61.0 °F /  16.1 °C 29.83in /  1010hPa Calm   1.0mph /  1.6km/h 94% 0.00in /  0mm
23:05 62.9 °F /  17.2 °C 61.2 °F /  16.2 °C 29.83in /  1010hPa Calm   2.0mph /  3.2km/h 94% 0.00in /  0mm
23:06 62.9 °F /  17.2 °C 61.2 °F /  16.2 °C 29.83in /  1010hPa Calm   2.0mph /  3.2km/h 94% 0.00in /  0mm
23:11 62.9 °F /  17.2 °C 61.2 °F /  16.2 °C 29.83in /  1010hPa South 1.0mph /  1.6km/h 1.0mph /  1.6km/h 94% 0.00in /  0mm
23:16 63.0 °F /  17.2 °C 61.2 °F /  16.2 °C 29.83in /  1010hPa Calm   2.0mph /  3.2km/h 94% 0.00in /  0mm
23:21 62.9 °F /  17.2 °C 61.2 °F /  16.2 °C 29.83in /  1010hPa SSE 2.0mph /  3.2km/h 2.0mph /  3.2km/h 94% 0.00in /  0mm
23:26 62.7 °F /  17.1 °C 61.0 °F /  16.1 °C 29.83in /  1010hPa South 2.0mph /  3.2km/h 3.0mph /  4.8km/h 94% 0.00in /  0mm
23:31 62.6 °F /  17 °C 60.8 °F /  16 °C 29.83in /  1010hPa South 1.0mph /  1.6km/h 2.0mph /  3.2km/h 94% 0.00in /  0mm
23:36 62.6 °F /  17 °C 60.8 °F /  16 °C 29.83in /  1010hPa South 1.0mph /  1.6km/h 2.0mph /  3.2km/h 94% 0.00in /  0mm
23:41 62.7 °F /  17.1 °C 61.0 °F /  16.1 °C 29.83in /  1010hPa South 1.0mph /  1.6km/h 3.0mph /  4.8km/h 94% 0.00in /  0mm
23:46 62.7 °F /  17.1 °C 61.0 °F /  16.1 °C 29.83in /  1010hPa SSW 1.0mph /  1.6km/h 3.0mph /  4.8km/h 94% 0.00in /  0mm
23:51 62.7 °F /  17.1 °C 61.0 °F /  16.1 °C 29.83in /  1010hPa SSW 2.0mph /  3.2km/h 2.0mph /  3.2km/h 94% 0.00in /  0mm
23:56 62.7 °F /  17.1 °C 61.0 °F /  16.1 °C 29.83in /  1010hPa SSW 1.0mph /  1.6km/h 2.0mph /  3.2km/h 94% 0.00in /  0mm
Compliments of Weather Underground